sensor_id;sensor_type;location;lat;lon;timestamp;temperature;humidity
5334;DHT22;2689;50.954;7.116;2022-12-18T00:01:37;-2.70;99.90
5334;DHT22;2689;50.954;7.116;2022-12-18T00:04:06;-2.70;99.90
5334;DHT22;2689;50.954;7.116;2022-12-18T00:06:34;-2.70;99.90
5334;DHT22;2689;50.954;7.116;2022-12-18T00:09:02;-2.70;99.90
5334;DHT22;2689;50.954;7.116;2022-12-18T00:11:30;-2.70;99.90
5334;DHT22;2689;50.954;7.116;2022-12-18T00:13:59;-2.70;99.90
5334;DHT22;2689;50.954;7.116;2022-12-18T00:16:27;-2.70;99.90
5334;DHT22;2689;50.954;7.116;2022-12-18T00:18:59;-2.70;99.90
5334;DHT22;2689;50.954;7.116;2022-12-18T00:21:28;-2.70;99.90
5334;DHT22;2689;50.954;7.116;2022-12-18T00:23:56;-2.60;99.90
5334;DHT22;2689;50.954;7.116;2022-12-18T00:26:25;-2.60;99.90
5334;DHT22;2689;50.954;7.116;2022-12-18T00:28:53;-2.60;99.90
5334;DHT22;2689;50.954;7.116;2022-12-18T00:31:25;-2.60;99.90
5334;DHT22;2689;50.954;7.116;2022-12-18T00:33:53;-2.60;99.90
5334;DHT22;2689;50.954;7.116;2022-12-18T00:36:24;-2.60;99.90
5334;DHT22;2689;50.954;7.116;2022-12-18T00:38:54;-2.70;99.90
5334;DHT22;2689;50.954;7.116;2022-12-18T00:41:22;-2.70;99.90
5334;DHT22;2689;50.954;7.116;2022-12-18T00:44:09;-2.70;99.90
5334;DHT22;2689;50.954;7.116;2022-12-18T00:46:37;-2.70;99.90
5334;DHT22;2689;50.954;7.116;2022-12-18T00:49:04;-2.70;99.90
5334;DHT22;2689;50.954;7.116;2022-12-18T00:51:33;-2.80;99.90
5334;DHT22;2689;50.954;7.116;2022-12-18T00:54:01;-2.80;99.90
5334;DHT22;2689;50.954;7.116;2022-12-18T00:56:30;-2.80;99.90
5334;DHT22;2689;50.954;7.116;2022-12-18T00:58:57;-2.80;99.90
5334;DHT22;2689;50.954;7.116;2022-12-18T01:01:24;-2.80;99.90
5334;DHT22;2689;50.954;7.116;2022-12-18T01:03:52;-2.70;99.90
5334;DHT22;2689;50.954;7.116;2022-12-18T01:06:19;-2.80;99.90
5334;DHT22;2689;50.954;7.116;2022-12-18T01:08:48;-2.80;99.90
5334;DHT22;2689;50.954;7.116;2022-12-18T01:11:18;-2.80;99.90
5334;DHT22;2689;50.954;7.116;2022-12-18T01:13:46;-2.70;99.90
5334;DHT22;2689;50.954;7.116;2022-12-18T01:16:14;-2.70;99.90
5334;DHT22;2689;50.954;7.116;2022-12-18T01:18:42;-2.70;99.90
5334;DHT22;2689;50.954;7.116;2022-12-18T01:21:11;-2.70;99.90
5334;DHT22;2689;50.954;7.116;2022-12-18T01:23:38;-2.80;99.90
5334;DHT22;2689;50.954;7.116;2022-12-18T01:26:09;-2.70;99.90
5334;DHT22;2689;50.954;7.116;2022-12-18T01:28:37;-2.70;99.90
5334;DHT22;2689;50.954;7.116;2022-12-18T01:31:14;-2.60;99.90
5334;DHT22;2689;50.954;7.116;2022-12-18T01:33:41;-2.60;99.90
5334;DHT22;2689;50.954;7.116;2022-12-18T01:36:14;-2.60;99.90
5334;DHT22;2689;50.954;7.116;2022-12-18T01:38:42;-2.60;99.90
5334;DHT22;2689;50.954;7.116;2022-12-18T01:41:11;-2.60;99.90
5334;DHT22;2689;50.954;7.116;2022-12-18T01:43:47;-2.60;99.90
5334;DHT22;2689;50.954;7.116;2022-12-18T01:46:16;-2.70;99.90
5334;DHT22;2689;50.954;7.116;2022-12-18T01:48:45;-2.70;99.90
5334;DHT22;2689;50.954;7.116;2022-12-18T01:51:14;-2.70;99.90
5334;DHT22;2689;50.954;7.116;2022-12-18T01:53:42;-2.70;99.90
5334;DHT22;2689;50.954;7.116;2022-12-18T01:56:15;-2.70;99.90
5334;DHT22;2689;50.954;7.116;2022-12-18T01:58:52;-2.80;99.90
5334;DHT22;2689;50.954;7.116;2022-12-18T02:01:22;-2.80;99.90
5334;DHT22;2689;50.954;7.116;2022-12-18T02:03:49;-2.80;99.90
5334;DHT22;2689;50.954;7.116;2022-12-18T02:06:21;-2.80;99.90
5334;DHT22;2689;50.954;7.116;2022-12-18T02:08:58;-2.80;99.90
5334;DHT22;2689;50.954;7.116;2022-12-18T02:11:39;-2.90;99.90
5334;DHT22;2689;50.954;7.116;2022-12-18T02:14:18;-2.90;99.90
5334;DHT22;2689;50.954;7.116;2022-12-18T02:16:54;-2.90;99.90
5334;DHT22;2689;50.954;7.116;2022-12-18T02:19:45;-3.00;99.90
5334;DHT22;2689;50.954;7.116;2022-12-18T02:22:26;-3.00;99.90
5334;DHT22;2689;50.954;7.116;2022-12-18T02:25:03;-3.10;99.90
5334;DHT22;2689;50.954;7.116;2022-12-18T02:27:36;-3.10;99.90
5334;DHT22;2689;50.954;7.116;2022-12-18T02:30:06;-3.20;99.90
5334;DHT22;2689;50.954;7.116;2022-12-18T02:32:37;-3.20;99.90
5334;DHT22;2689;50.954;7.116;2022-12-18T02:35:12;-3.20;99.90
5334;DHT22;2689;50.954;7.116;2022-12-18T02:37:44;-3.30;99.90
5334;DHT22;2689;50.954;7.116;2022-12-18T02:40:13;-3.30;99.90
5334;DHT22;2689;50.954;7.116;2022-12-18T02:42:45;-3.30;99.90
5334;DHT22;2689;50.954;7.116;2022-12-18T02:45:15;-3.30;99.90
5334;DHT22;2689;50.954;7.116;2022-12-18T02:47:45;-3.40;99.90
5334;DHT22;2689;50.954;7.116;2022-12-18T02:50:18;-3.40;99.90
5334;DHT22;2689;50.954;7.116;2022-12-18T02:52:54;-3.40;99.90
5334;DHT22;2689;50.954;7.116;2022-12-18T02:55:29;-3.50;99.90
5334;DHT22;2689;50.954;7.116;2022-12-18T02:58:03;-3.50;99.90
5334;DHT22;2689;50.954;7.116;2022-12-18T03:00:34;-3.50;99.90
5334;DHT22;2689;50.954;7.116;2022-12-18T03:03:07;-3.60;99.90
5334;DHT22;2689;50.954;7.116;2022-12-18T03:05:40;-3.60;99.90
5334;DHT22;2689;50.954;7.116;2022-12-18T03:08:13;-3.60;99.90
5334;DHT22;2689;50.954;7.116;2022-12-18T03:10:47;-3.70;99.90
5334;DHT22;2689;50.954;7.116;2022-12-18T03:13:20;-3.70;99.90
5334;DHT22;2689;50.954;7.116;2022-12-18T03:15:51;-3.70;99.90
5334;DHT22;2689;50.954;7.116;2022-12-18T03:18:23;-3.70;99.90
5334;DHT22;2689;50.954;7.116;2022-12-18T03:20:53;-3.70;99.90
5334;DHT22;2689;50.954;7.116;2022-12-18T03:23:26;-3.80;99.90
5334;DHT22;2689;50.954;7.116;2022-12-18T03:25:57;-3.80;99.90
5334;DHT22;2689;50.954;7.116;2022-12-18T03:28:29;-3.70;99.90
5334;DHT22;2689;50.954;7.116;2022-12-18T03:30:59;-3.70;99.90
5334;DHT22;2689;50.954;7.116;2022-12-18T03:33:29;-3.60;99.90
5334;DHT22;2689;50.954;7.116;2022-12-18T03:35:58;-3.50;99.90
5334;DHT22;2689;50.954;7.116;2022-12-18T03:38:25;-3.50;99.90
5334;DHT22;2689;50.954;7.116;2022-12-18T03:40:59;-3.40;99.90
5334;DHT22;2689;50.954;7.116;2022-12-18T03:43:38;-3.30;99.90
5334;DHT22;2689;50.954;7.116;2022-12-18T03:46:14;-3.30;99.90
5334;DHT22;2689;50.954;7.116;2022-12-18T03:48:47;-3.20;99.90
5334;DHT22;2689;50.954;7.116;2022-12-18T03:51:21;-3.20;99.90
5334;DHT22;2689;50.954;7.116;2022-12-18T03:53:55;-3.10;99.90
5334;DHT22;2689;50.954;7.116;2022-12-18T03:56:25;-3.20;99.90
5334;DHT22;2689;50.954;7.116;2022-12-18T03:58:57;-3.20;99.90
5334;DHT22;2689;50.954;7.116;2022-12-18T04:01:31;-3.20;99.90
5334;DHT22;2689;50.954;7.116;2022-12-18T04:04:00;-3.20;99.90
5334;DHT22;2689;50.954;7.116;2022-12-18T04:06:29;-3.10;99.90
5334;DHT22;2689;50.954;7.116;2022-12-18T04:08:58;-3.10;99.90
5334;DHT22;2689;50.954;7.116;2022-12-18T04:11:25;-3.10;99.90
5334;DHT22;2689;50.954;7.116;2022-12-18T04:13:57;-3.10;99.90
5334;DHT22;2689;50.954;7.116;2022-12-18T04:16:25;-3.10;99.90
5334;DHT22;2689;50.954;7.116;2022-12-18T04:18:53;-3.10;99.90
5334;DHT22;2689;50.954;7.116;2022-12-18T04:21:20;-3.10;99.90
5334;DHT22;2689;50.954;7.116;2022-12-18T04:23:48;-3.20;99.90
5334;DHT22;2689;50.954;7.116;2022-12-18T04:26:17;-3.20;99.90
5334;DHT22;2689;50.954;7.116;2022-12-18T04:28:46;-3.20;99.90
5334;DHT22;2689;50.954;7.116;2022-12-18T04:31:16;-3.20;99.90
5334;DHT22;2689;50.954;7.116;2022-12-18T04:33:43;-3.20;99.90
5334;DHT22;2689;50.954;7.116;2022-12-18T04:36:10;-3.10;99.90
5334;DHT22;2689;50.954;7.116;2022-12-18T04:38:38;-3.10;99.90
5334;DHT22;2689;50.954;7.116;2022-12-18T04:41:06;-3.10;99.90
5334;DHT22;2689;50.954;7.116;2022-12-18T04:43:38;-3.20;99.90
5334;DHT22;2689;50.954;7.116;2022-12-18T04:46:06;-3.20;99.90
5334;DHT22;2689;50.954;7.116;2022-12-18T04:48:37;-3.30;99.90
5334;DHT22;2689;50.954;7.116;2022-12-18T04:51:07;-3.30;99.90
5334;DHT22;2689;50.954;7.116;2022-12-18T04:53:35;-3.30;99.90
5334;DHT22;2689;50.954;7.116;2022-12-18T04:56:06;-3.30;99.90
5334;DHT22;2689;50.954;7.116;2022-12-18T04:58:34;-3.40;99.90
5334;DHT22;2689;50.954;7.116;2022-12-18T05:01:01;-3.40;99.90
5334;DHT22;2689;50.954;7.116;2022-12-18T05:03:29;-3.40;99.90
5334;DHT22;2689;50.954;7.116;2022-12-18T05:06:01;-3.50;99.90
5334;DHT22;2689;50.954;7.116;2022-12-18T05:08:30;-3.50;99.90
5334;DHT22;2689;50.954;7.116;2022-12-18T05:10:59;-3.50;99.90
5334;DHT22;2689;50.954;7.116;2022-12-18T05:13:28;-3.50;99.90
5334;DHT22;2689;50.954;7.116;2022-12-18T05:15:58;-3.40;99.90
5334;DHT22;2689;50.954;7.116;2022-12-18T05:18:26;-3.40;99.90
5334;DHT22;2689;50.954;7.116;2022-12-18T05:20:54;-3.40;99.90
5334;DHT22;2689;50.954;7.116;2022-12-18T05:23:24;-3.40;99.90
5334;DHT22;2689;50.954;7.116;2022-12-18T05:25:54;-3.40;99.90
5334;DHT22;2689;50.954;7.116;2022-12-18T05:28:24;-3.40;99.90
5334;DHT22;2689;50.954;7.116;2022-12-18T05:30:55;-3.40;99.90
5334;DHT22;2689;50.954;7.116;2022-12-18T05:33:26;-3.40;99.90
5334;DHT22;2689;50.954;7.116;2022-12-18T05:35:55;-3.40;99.90
5334;DHT22;2689;50.954;7.116;2022-12-18T05:38:26;-3.40;99.90
5334;DHT22;2689;50.954;7.116;2022-12-18T05:40:55;-3.40;99.90
5334;DHT22;2689;50.954;7.116;2022-12-18T05:43:27;-3.40;99.90
5334;DHT22;2689;50.954;7.116;2022-12-18T05:45:56;-3.40;99.90
5334;DHT22;2689;50.954;7.116;2022-12-18T05:48:26;-3.40;99.90
5334;DHT22;2689;50.954;7.116;2022-12-18T05:50:55;-3.40;99.90
5334;DHT22;2689;50.954;7.116;2022-12-18T05:53:25;-3.40;99.90
5334;DHT22;2689;50.954;7.116;2022-12-18T05:55:53;-3.40;99.90
5334;DHT22;2689;50.954;7.116;2022-12-18T05:58:23;-3.40;99.90
5334;DHT22;2689;50.954;7.116;2022-12-18T06:00:53;-3.40;99.90
5334;DHT22;2689;50.954;7.116;2022-12-18T06:03:22;-3.40;99.90
5334;DHT22;2689;50.954;7.116;2022-12-18T06:05:51;-3.40;99.90
5334;DHT22;2689;50.954;7.116;2022-12-18T06:08:20;-3.40;99.90
5334;DHT22;2689;50.954;7.116;2022-12-18T06:10:53;-3.50;99.90
5334;DHT22;2689;50.954;7.116;2022-12-18T06:13:22;-3.50;99.90
5334;DHT22;2689;50.954;7.116;2022-12-18T06:15:51;-3.50;99.90
5334;DHT22;2689;50.954;7.116;2022-12-18T06:18:20;-3.50;99.90
5334;DHT22;2689;50.954;7.116;2022-12-18T06:20:55;-3.60;99.90
5334;DHT22;2689;50.954;7.116;2022-12-18T06:23:26;-3.60;99.90
5334;DHT22;2689;50.954;7.116;2022-12-18T06:39:44;-3.70;99.90
5334;DHT22;2689;50.954;7.116;2022-12-18T06:42:14;-3.70;99.90
5334;DHT22;2689;50.954;7.116;2022-12-18T06:44:44;-3.70;99.90
5334;DHT22;2689;50.954;7.116;2022-12-18T06:47:14;-3.70;99.90
5334;DHT22;2689;50.954;7.116;2022-12-18T06:49:44;-3.70;99.90
5334;DHT22;2689;50.954;7.116;2022-12-18T06:52:16;-3.70;99.90
5334;DHT22;2689;50.954;7.116;2022-12-18T06:54:48;-3.80;99.90
5334;DHT22;2689;50.954;7.116;2022-12-18T06:57:18;-3.80;99.90
5334;DHT22;2689;50.954;7.116;2022-12-18T06:59:49;-3.90;99.90
5334;DHT22;2689;50.954;7.116;2022-12-18T07:02:18;-3.90;99.90
5334;DHT22;2689;50.954;7.116;2022-12-18T07:04:48;-4.00;99.90
5334;DHT22;2689;50.954;7.116;2022-12-18T07:17:33;-4.10;99.90
5334;DHT22;2689;50.954;7.116;2022-12-18T07:20:02;-4.10;99.90
5334;DHT22;2689;50.954;7.116;2022-12-18T07:22:36;-4.10;99.90
5334;DHT22;2689;50.954;7.116;2022-12-18T07:25:09;-4.10;99.90
5334;DHT22;2689;50.954;7.116;2022-12-18T07:27:39;-4.10;99.90
5334;DHT22;2689;50.954;7.116;2022-12-18T07:30:10;-4.10;99.90
5334;DHT22;2689;50.954;7.116;2022-12-18T07:32:42;-4.10;99.90
5334;DHT22;2689;50.954;7.116;2022-12-18T07:35:11;-4.10;99.90
5334;DHT22;2689;50.954;7.116;2022-12-18T07:37:41;-4.20;99.90
5334;DHT22;2689;50.954;7.116;2022-12-18T07:40:12;-4.20;99.90
5334;DHT22;2689;50.954;7.116;2022-12-18T07:42:43;-4.20;99.90
5334;DHT22;2689;50.954;7.116;2022-12-18T07:45:37;-4.10;99.90
5334;DHT22;2689;50.954;7.116;2022-12-18T07:48:35;-4.10;99.90
5334;DHT22;2689;50.954;7.116;2022-12-18T07:54:28;-4.00;99.90
5334;DHT22;2689;50.954;7.116;2022-12-18T07:57:03;-3.80;99.90
5334;DHT22;2689;50.954;7.116;2022-12-18T07:59:40;-3.70;99.90
5334;DHT22;2689;50.954;7.116;2022-12-18T08:02:16;-3.60;99.90
5334;DHT22;2689;50.954;7.116;2022-12-18T08:04:47;-3.50;99.90
5334;DHT22;2689;50.954;7.116;2022-12-18T08:07:17;-3.40;99.90
5334;DHT22;2689;50.954;7.116;2022-12-18T08:09:48;-3.20;99.90
5334;DHT22;2689;50.954;7.116;2022-12-18T08:12:18;-3.10;99.90
5334;DHT22;2689;50.954;7.116;2022-12-18T08:14:49;-3.00;99.90
5334;DHT22;2689;50.954;7.116;2022-12-18T08:17:16;-2.80;99.90
5334;DHT22;2689;50.954;7.116;2022-12-18T08:19:48;-2.70;99.90
5334;DHT22;2689;50.954;7.116;2022-12-18T08:22:17;-2.60;99.90
5334;DHT22;2689;50.954;7.116;2022-12-18T08:24:48;-2.60;99.90
5334;DHT22;2689;50.954;7.116;2022-12-18T08:27:17;-2.50;99.90
5334;DHT22;2689;50.954;7.116;2022-12-18T08:29:45;-2.30;99.90
5334;DHT22;2689;50.954;7.116;2022-12-18T08:32:14;-2.20;99.90
5334;DHT22;2689;50.954;7.116;2022-12-18T08:34:43;-2.20;99.90
5334;DHT22;2689;50.954;7.116;2022-12-18T08:37:13;-2.00;99.90
5334;DHT22;2689;50.954;7.116;2022-12-18T08:39:43;-1.90;99.90
5334;DHT22;2689;50.954;7.116;2022-12-18T08:42:11;-1.80;99.90
5334;DHT22;2689;50.954;7.116;2022-12-18T08:44:56;-1.70;99.90
5334;DHT22;2689;50.954;7.116;2022-12-18T08:47:23;-1.50;99.90
5334;DHT22;2689;50.954;7.116;2022-12-18T08:49:52;-1.30;99.90
5334;DHT22;2689;50.954;7.116;2022-12-18T08:52:22;-0.90;99.90
5334;DHT22;2689;50.954;7.116;2022-12-18T08:54:52;-0.30;99.90
5334;DHT22;2689;50.954;7.116;2022-12-18T08:57:21;0.50;99.90
5334;DHT22;2689;50.954;7.116;2022-12-18T08:59:49;1.20;99.60
5334;DHT22;2689;50.954;7.116;2022-12-18T09:02:19;1.70;97.50
5334;DHT22;2689;50.954;7.116;2022-12-18T09:04:49;1.90;95.70
5334;DHT22;2689;50.954;7.116;2022-12-18T09:07:18;2.10;95.50
5334;DHT22;2689;50.954;7.116;2022-12-18T09:09:49;2.00;94.60
5334;DHT22;2689;50.954;7.116;2022-12-18T09:12:19;1.90;94.60
5334;DHT22;2689;50.954;7.116;2022-12-18T09:14:47;1.60;94.60
5334;DHT22;2689;50.954;7.116;2022-12-18T09:17:14;1.50;95.10
5334;DHT22;2689;50.954;7.116;2022-12-18T09:19:42;1.30;95.40
5334;DHT22;2689;50.954;7.116;2022-12-18T09:22:12;1.30;95.90
5334;DHT22;2689;50.954;7.116;2022-12-18T09:24:42;1.20;95.70
5334;DHT22;2689;50.954;7.116;2022-12-18T09:27:14;1.10;95.70
5334;DHT22;2689;50.954;7.116;2022-12-18T09:29:41;0.90;96.20
5334;DHT22;2689;50.954;7.116;2022-12-18T09:32:10;0.80;96.30
5334;DHT22;2689;50.954;7.116;2022-12-18T09:34:40;0.80;96.50
5334;DHT22;2689;50.954;7.116;2022-12-18T09:37:09;0.80;97.70
5334;DHT22;2689;50.954;7.116;2022-12-18T09:39:38;0.80;98.00
5334;DHT22;2689;50.954;7.116;2022-12-18T09:42:19;0.90;97.50
5334;DHT22;2689;50.954;7.116;2022-12-18T09:44:51;0.90;97.10
5334;DHT22;2689;50.954;7.116;2022-12-18T09:47:21;0.90;96.70
5334;DHT22;2689;50.954;7.116;2022-12-18T09:49:53;0.90;96.60
5334;DHT22;2689;50.954;7.116;2022-12-18T09:52:26;1.00;96.40
5334;DHT22;2689;50.954;7.116;2022-12-18T09:55:00;1.00;96.30
5334;DHT22;2689;50.954;7.116;2022-12-18T09:57:33;1.10;96.30
5334;DHT22;2689;50.954;7.116;2022-12-18T10:00:09;1.10;96.60
5334;DHT22;2689;50.954;7.116;2022-12-18T10:02:40;1.20;95.80
5334;DHT22;2689;50.954;7.116;2022-12-18T10:05:12;1.20;95.90
5334;DHT22;2689;50.954;7.116;2022-12-18T10:07:52;1.30;95.90
5334;DHT22;2689;50.954;7.116;2022-12-18T10:10:29;1.30;95.30
5334;DHT22;2689;50.954;7.116;2022-12-18T10:13:07;1.40;95.50
5334;DHT22;2689;50.954;7.116;2022-12-18T10:15:42;1.50;95.60
5334;DHT22;2689;50.954;7.116;2022-12-18T10:18:23;1.50;95.20
5334;DHT22;2689;50.954;7.116;2022-12-18T10:21:00;1.60;95.30
5334;DHT22;2689;50.954;7.116;2022-12-18T10:23:42;1.60;95.20
5334;DHT22;2689;50.954;7.116;2022-12-18T10:26:15;1.70;95.00
5334;DHT22;2689;50.954;7.116;2022-12-18T10:28:46;1.70;94.50
5334;DHT22;2689;50.954;7.116;2022-12-18T10:31:22;1.70;94.50
5334;DHT22;2689;50.954;7.116;2022-12-18T10:33:54;1.70;94.60
5334;DHT22;2689;50.954;7.116;2022-12-18T10:36:24;1.80;94.40
5334;DHT22;2689;50.954;7.116;2022-12-18T10:39:16;1.80;94.40
5334;DHT22;2689;50.954;7.116;2022-12-18T10:52:14;2.00;93.90
5334;DHT22;2689;50.954;7.116;2022-12-18T10:54:50;2.10;93.90
5334;DHT22;2689;50.954;7.116;2022-12-18T10:57:33;2.20;93.90
5334;DHT22;2689;50.954;7.116;2022-12-18T11:03:32;2.30;93.70
5334;DHT22;2689;50.954;7.116;2022-12-18T11:06:09;2.30;93.30
5334;DHT22;2689;50.954;7.116;2022-12-18T11:09:20;2.40;93.20
5334;DHT22;2689;50.954;7.116;2022-12-18T11:29:15;2.50;92.20
5334;DHT22;2689;50.954;7.116;2022-12-18T11:35:35;2.40;92.80
5334;DHT22;2689;50.954;7.116;2022-12-18T11:38:18;2.40;92.50
5334;DHT22;2689;50.954;7.116;2022-12-18T11:50:48;2.30;93.10
5334;DHT22;2689;50.954;7.116;2022-12-18T11:53:19;2.20;93.00
5334;DHT22;2689;50.954;7.116;2022-12-18T11:56:04;2.20;93.30
5334;DHT22;2689;50.954;7.116;2022-12-18T11:58:47;2.20;93.10
5334;DHT22;2689;50.954;7.116;2022-12-18T12:01:31;2.10;93.50
5334;DHT22;2689;50.954;7.116;2022-12-18T12:46:09;1.30;95.80
5334;DHT22;2689;50.954;7.116;2022-12-18T12:48:42;1.30;95.80
5334;DHT22;2689;50.954;7.116;2022-12-18T12:51:17;1.40;95.60
5334;DHT22;2689;50.954;7.116;2022-12-18T12:53:45;1.40;95.60
5334;DHT22;2689;50.954;7.116;2022-12-18T12:56:14;1.40;96.00
5334;DHT22;2689;50.954;7.116;2022-12-18T12:58:48;1.40;96.00
5334;DHT22;2689;50.954;7.116;2022-12-18T13:01:24;1.40;95.50
5334;DHT22;2689;50.954;7.116;2022-12-18T13:03:57;1.40;95.80
5334;DHT22;2689;50.954;7.116;2022-12-18T13:06:37;1.30;95.30
5334;DHT22;2689;50.954;7.116;2022-12-18T13:09:07;1.30;95.60
5334;DHT22;2689;50.954;7.116;2022-12-18T13:11:39;1.20;95.80
5334;DHT22;2689;50.954;7.116;2022-12-18T13:14:27;1.20;96.20
5334;DHT22;2689;50.954;7.116;2022-12-18T13:17:28;1.30;95.90
5334;DHT22;2689;50.954;7.116;2022-12-18T13:20:20;1.30;96.10
5334;DHT22;2689;50.954;7.116;2022-12-18T13:22:48;1.20;95.80
5334;DHT22;2689;50.954;7.116;2022-12-18T13:25:33;1.20;96.00
5334;DHT22;2689;50.954;7.116;2022-12-18T13:28:11;1.30;95.90
5334;DHT22;2689;50.954;7.116;2022-12-18T13:30:52;1.30;96.30
5334;DHT22;2689;50.954;7.116;2022-12-18T13:33:41;1.30;96.10
5334;DHT22;2689;50.954;7.116;2022-12-18T13:36:17;1.30;96.30
5334;DHT22;2689;50.954;7.116;2022-12-18T13:39:15;1.30;96.10
5334;DHT22;2689;50.954;7.116;2022-12-18T13:41:49;1.30;96.10
5334;DHT22;2689;50.954;7.116;2022-12-18T13:44:30;1.30;95.90
5334;DHT22;2689;50.954;7.116;2022-12-18T13:46:58;1.30;96.10
5334;DHT22;2689;50.954;7.116;2022-12-18T13:50:06;1.30;96.80
5334;DHT22;2689;50.954;7.116;2022-12-18T13:53:20;1.30;96.30
5334;DHT22;2689;50.954;7.116;2022-12-18T13:55:49;1.40;97.00
5334;DHT22;2689;50.954;7.116;2022-12-18T13:58:16;1.40;96.60
5334;DHT22;2689;50.954;7.116;2022-12-18T14:00:43;1.40;96.80
5334;DHT22;2689;50.954;7.116;2022-12-18T14:03:18;1.40;96.20
5334;DHT22;2689;50.954;7.116;2022-12-18T14:05:53;1.30;95.50
5334;DHT22;2689;50.954;7.116;2022-12-18T14:08:21;1.30;95.70
5334;DHT22;2689;50.954;7.116;2022-12-18T14:10:48;1.20;96.00
5334;DHT22;2689;50.954;7.116;2022-12-18T14:13:21;1.20;96.00
5334;DHT22;2689;50.954;7.116;2022-12-18T14:15:50;1.10;96.20
5334;DHT22;2689;50.954;7.116;2022-12-18T14:18:21;1.10;96.30
5334;DHT22;2689;50.954;7.116;2022-12-18T14:20:52;1.00;96.30
5334;DHT22;2689;50.954;7.116;2022-12-18T14:23:27;1.00;96.30
5334;DHT22;2689;50.954;7.116;2022-12-18T14:25:53;0.90;96.60
5334;DHT22;2689;50.954;7.116;2022-12-18T14:28:21;0.90;96.60
5334;DHT22;2689;50.954;7.116;2022-12-18T14:30:48;0.90;96.80
5334;DHT22;2689;50.954;7.116;2022-12-18T14:33:17;0.90;97.00
5334;DHT22;2689;50.954;7.116;2022-12-18T14:35:56;0.90;97.80
5334;DHT22;2689;50.954;7.116;2022-12-18T14:38:26;0.90;97.30
5334;DHT22;2689;50.954;7.116;2022-12-18T14:40:55;0.90;97.60
5334;DHT22;2689;50.954;7.116;2022-12-18T14:43:26;0.90;97.30
5334;DHT22;2689;50.954;7.116;2022-12-18T14:45:54;0.90;96.80
5334;DHT22;2689;50.954;7.116;2022-12-18T14:48:32;0.80;96.70
5334;DHT22;2689;50.954;7.116;2022-12-18T14:51:02;0.80;96.80
5334;DHT22;2689;50.954;7.116;2022-12-18T14:53:36;0.80;96.90
5334;DHT22;2689;50.954;7.116;2022-12-18T14:56:13;0.70;96.90
5334;DHT22;2689;50.954;7.116;2022-12-18T14:58:47;0.70;96.80
5334;DHT22;2689;50.954;7.116;2022-12-18T15:01:19;0.70;96.80
5334;DHT22;2689;50.954;7.116;2022-12-18T15:03:46;0.60;96.80
5334;DHT22;2689;50.954;7.116;2022-12-18T15:06:25;0.60;97.00
5334;DHT22;2689;50.954;7.116;2022-12-18T15:08:53;0.60;97.10
5334;DHT22;2689;50.954;7.116;2022-12-18T15:11:28;0.60;97.10
5334;DHT22;2689;50.954;7.116;2022-12-18T15:13:57;0.60;97.20
5334;DHT22;2689;50.954;7.116;2022-12-18T15:16:23;0.60;97.30
5334;DHT22;2689;50.954;7.116;2022-12-18T15:18:53;0.60;97.40
5334;DHT22;2689;50.954;7.116;2022-12-18T15:21:21;0.50;97.40
5334;DHT22;2689;50.954;7.116;2022-12-18T15:23:50;0.50;97.10
5334;DHT22;2689;50.954;7.116;2022-12-18T15:26:19;0.60;97.20
5334;DHT22;2689;50.954;7.116;2022-12-18T15:28:47;0.50;97.30
5334;DHT22;2689;50.954;7.116;2022-12-18T15:31:33;0.50;97.40
5334;DHT22;2689;50.954;7.116;2022-12-18T15:34:09;0.50;97.70
5334;DHT22;2689;50.954;7.116;2022-12-18T15:36:38;0.50;97.60
5334;DHT22;2689;50.954;7.116;2022-12-18T15:39:05;0.50;97.90
5334;DHT22;2689;50.954;7.116;2022-12-18T15:41:36;0.50;97.60
5334;DHT22;2689;50.954;7.116;2022-12-18T15:44:15;0.50;97.70
5334;DHT22;2689;50.954;7.116;2022-12-18T15:46:46;0.50;97.70
5334;DHT22;2689;50.954;7.116;2022-12-18T15:49:13;0.50;97.80
5334;DHT22;2689;50.954;7.116;2022-12-18T15:51:43;0.40;97.80
5334;DHT22;2689;50.954;7.116;2022-12-18T15:54:13;0.40;98.00
5334;DHT22;2689;50.954;7.116;2022-12-18T15:56:41;0.40;98.20
5334;DHT22;2689;50.954;7.116;2022-12-18T15:59:26;0.40;98.20
5334;DHT22;2689;50.954;7.116;2022-12-18T16:01:52;0.40;98.30
5334;DHT22;2689;50.954;7.116;2022-12-18T16:04:21;0.40;98.30
5334;DHT22;2689;50.954;7.116;2022-12-18T16:06:50;0.40;98.50
5334;DHT22;2689;50.954;7.116;2022-12-18T16:09:18;0.30;98.50
5334;DHT22;2689;50.954;7.116;2022-12-18T16:11:44;0.30;98.80
5334;DHT22;2689;50.954;7.116;2022-12-18T16:14:16;0.30;98.90
5334;DHT22;2689;50.954;7.116;2022-12-18T16:16:44;0.30;99.10
5334;DHT22;2689;50.954;7.116;2022-12-18T16:19:11;0.20;99.10
5334;DHT22;2689;50.954;7.116;2022-12-18T16:21:38;0.20;99.30
5334;DHT22;2689;50.954;7.116;2022-12-18T16:24:12;0.20;99.50
5334;DHT22;2689;50.954;7.116;2022-12-18T16:26:39;0.20;99.70
5334;DHT22;2689;50.954;7.116;2022-12-18T16:29:07;0.10;99.80
5334;DHT22;2689;50.954;7.116;2022-12-18T16:31:34;0.10;99.90
5334;DHT22;2689;50.954;7.116;2022-12-18T16:34:11;0.10;99.90
5334;DHT22;2689;50.954;7.116;2022-12-18T16:36:38;0.00;99.90
5334;DHT22;2689;50.954;7.116;2022-12-18T16:39:06;0.00;99.90
5334;DHT22;2689;50.954;7.116;2022-12-18T16:41:33;0.00;99.90
5334;DHT22;2689;50.954;7.116;2022-12-18T16:44:01;0.00;99.90
5334;DHT22;2689;50.954;7.116;2022-12-18T16:46:27;0.00;99.90
5334;DHT22;2689;50.954;7.116;2022-12-18T16:48:56;0.00;99.90
5334;DHT22;2689;50.954;7.116;2022-12-18T16:51:23;0.00;99.90
5334;DHT22;2689;50.954;7.116;2022-12-18T16:53:50;0.00;99.90
5334;DHT22;2689;50.954;7.116;2022-12-18T16:56:18;-0.10;99.90
5334;DHT22;2689;50.954;7.116;2022-12-18T16:58:53;-0.10;99.90
5334;DHT22;2689;50.954;7.116;2022-12-18T17:01:20;-0.10;99.90
5334;DHT22;2689;50.954;7.116;2022-12-18T17:03:53;-0.10;99.90
5334;DHT22;2689;50.954;7.116;2022-12-18T17:06:24;-0.20;99.90
5334;DHT22;2689;50.954;7.116;2022-12-18T17:08:55;-0.20;99.90
5334;DHT22;2689;50.954;7.116;2022-12-18T17:11:25;-0.20;99.90
5334;DHT22;2689;50.954;7.116;2022-12-18T17:13:52;-0.20;99.90
5334;DHT22;2689;50.954;7.116;2022-12-18T17:19:36;-0.20;99.90
5334;DHT22;2689;50.954;7.116;2022-12-18T17:22:03;-0.20;99.90
5334;DHT22;2689;50.954;7.116;2022-12-18T17:24:30;-0.20;99.90
5334;DHT22;2689;50.954;7.116;2022-12-18T17:26:58;-0.20;99.90
5334;DHT22;2689;50.954;7.116;2022-12-18T17:29:25;-0.30;99.90
5334;DHT22;2689;50.954;7.116;2022-12-18T17:31:52;-0.30;99.90
5334;DHT22;2689;50.954;7.116;2022-12-18T17:34:19;-0.20;99.90
5334;DHT22;2689;50.954;7.116;2022-12-18T17:36:46;-0.30;99.90
5334;DHT22;2689;50.954;7.116;2022-12-18T17:39:17;-0.30;99.90
5334;DHT22;2689;50.954;7.116;2022-12-18T17:41:44;-0.30;99.90
5334;DHT22;2689;50.954;7.116;2022-12-18T17:44:13;-0.20;99.90
5334;DHT22;2689;50.954;7.116;2022-12-18T17:46:40;-0.30;99.90
5334;DHT22;2689;50.954;7.116;2022-12-18T17:49:08;-0.30;99.90
5334;DHT22;2689;50.954;7.116;2022-12-18T17:51:35;-0.20;99.90
5334;DHT22;2689;50.954;7.116;2022-12-18T17:54:01;-0.20;99.90
5334;DHT22;2689;50.954;7.116;2022-12-18T17:56:29;-0.30;99.90
5334;DHT22;2689;50.954;7.116;2022-12-18T17:58:59;-0.30;99.90
5334;DHT22;2689;50.954;7.116;2022-12-18T18:01:27;-0.40;99.90
5334;DHT22;2689;50.954;7.116;2022-12-18T18:03:54;-0.30;99.90
5334;DHT22;2689;50.954;7.116;2022-12-18T18:06:22;-0.40;99.90
5334;DHT22;2689;50.954;7.116;2022-12-18T18:08:52;-0.40;99.90
5334;DHT22;2689;50.954;7.116;2022-12-18T18:11:22;-0.30;99.90
5334;DHT22;2689;50.954;7.116;2022-12-18T18:14:13;-0.40;99.90
5334;DHT22;2689;50.954;7.116;2022-12-18T18:16:43;-0.30;99.90
5334;DHT22;2689;50.954;7.116;2022-12-18T18:19:24;-0.30;99.90
5334;DHT22;2689;50.954;7.116;2022-12-18T18:21:52;-0.30;99.90
5334;DHT22;2689;50.954;7.116;2022-12-18T18:24:21;-0.30;99.90
5334;DHT22;2689;50.954;7.116;2022-12-18T18:27:01;-0.40;99.90
5334;DHT22;2689;50.954;7.116;2022-12-18T18:29:32;-0.40;99.90
5334;DHT22;2689;50.954;7.116;2022-12-18T18:32:10;-0.30;99.90
5334;DHT22;2689;50.954;7.116;2022-12-18T18:34:37;-0.30;99.90